Terminal Aerodrome Forecast
Issued by NWS Louisville, KY

Home | Current Version | Previous Version | Text Only | Print | Product List | Glossary On
Versions: 1 2 3 4 5 6 7 8 9 10 11 12 13 14 15 16
104
FTUS43 KLMK 181443 AAA
TAFSDF
TAF AMD
KSDF 181443Z 1815/1918 13008KT P6SM FEW060 FEW250
     FM181600 20015G25KT P6SM BKN035
     FM182100 24028G30KT P6SM -SHRA BKN035
     FM190000 28018G34KT P6SM BKN045
     FM190400 30015G25KT P6SM BKN045=

USA.gov is the U.S. government's official web portal to all federal, state and local government web resources and services.